Evanston-Uinta County Airport-Burns Field Evanston US
ICAO: KEVW
IATA: EVW
Category: Medium
Scheduled Services: No

Elevation: 7143 ft
TransAlt. 18000 ft.

Airport Communications:
ASOS:120
SALT LAKE CITY CNTR:127.7
CTAF/UNICOM:122.8

KEVW Zoom In..

Runways:

(A) RW 05 length 7300 ft width 100 ft
---- / hdg 54

(B) RW 23 length 7300 ft width 100 ft
ILS 108.90 / hdg 234

Location; KEVW
Day. 11 / Time. 20.53 Zulu
* Altimeter: 30.37
* Temperature: 30° c. 86°f.
* Wind from: 230° Speed 07 kn with Gusts up to 19 kn.
Dewpoint: -06° c.
Visibility: 10 Statute Miles.
Clouds: Clear (automated report).

KEVW 112053Z AUTO 23007G19KT 180V250 10SM CLR 30/M06 A3037 RMK AO2 SLP175 T03001061 58014 $

Going to: --> -->


Wind From 230°
Speed 07 kn.

 
 
jpsmedia worldairports.se 2020   terms of use